sensor_id;sensor_type;location;lat;lon;timestamp;P1;durP1;ratioP1;P2;durP2;ratioP2
22359;SDS011;71759;52.034;4.706;2023-08-08T08:27:32;2.92;;;0.60;;
22359;SDS011;71759;52.034;4.706;2023-08-08T08:29:58;3.00;;;0.65;;
22359;SDS011;71759;52.034;4.706;2023-08-08T08:32:24;3.15;;;0.68;;
22359;SDS011;71759;52.034;4.706;2023-08-08T08:34:49;3.47;;;0.80;;
22359;SDS011;71759;52.034;4.706;2023-08-08T08:37:15;4.07;;;0.70;;
22359;SDS011;71759;52.034;4.706;2023-08-08T08:39:40;3.50;;;0.60;;
22359;SDS011;71759;52.034;4.706;2023-08-08T08:42:06;3.80;;;0.70;;
22359;SDS011;71759;52.034;4.706;2023-08-08T08:49:31;3.03;;;0.67;;
22359;SDS011;71759;52.034;4.706;2023-08-08T08:51:57;4.73;;;0.70;;
22359;SDS011;71759;52.034;4.706;2023-08-08T08:54:25;4.13;;;0.70;;
22359;SDS011;71759;52.034;4.706;2023-08-08T08:56:54;3.40;;;0.60;;
22359;SDS011;71759;52.034;4.706;2023-08-08T08:59:21;4.63;;;1.00;;
22359;SDS011;71759;52.034;4.706;2023-08-08T09:01:46;4.70;;;0.57;;
22359;SDS011;71759;52.034;4.706;2023-08-08T09:04:12;3.60;;;0.70;;
22359;SDS011;71759;52.034;4.706;2023-08-08T09:06:41;3.73;;;0.67;;
22359;SDS011;71759;52.034;4.706;2023-08-08T09:09:07;1.77;;;0.60;;
22359;SDS011;71759;52.034;4.706;2023-08-08T09:11:33;2.00;;;0.40;;
22359;SDS011;71759;52.034;4.706;2023-08-08T09:13:59;2.77;;;0.50;;
22359;SDS011;71759;52.034;4.706;2023-08-08T09:16:25;2.50;;;0.73;;
22359;SDS011;71759;52.034;4.706;2023-08-08T09:18:51;2.27;;;0.57;;
22359;SDS011;71759;52.034;4.706;2023-08-08T09:21:18;1.17;;;0.47;;
22359;SDS011;71759;52.034;4.706;2023-08-08T09:23:43;1.00;;;0.50;;
22359;SDS011;71759;52.034;4.706;2023-08-08T09:26:09;3.73;;;0.83;;
22359;SDS011;71759;52.034;4.706;2023-08-08T09:28:35;1.20;;;0.70;;
22359;SDS011;71759;52.034;4.706;2023-08-08T09:31:00;1.97;;;0.50;;
22359;SDS011;71759;52.034;4.706;2023-08-08T09:35:55;1.92;;;0.60;;
22359;SDS011;71759;52.034;4.706;2023-08-08T09:38:20;1.97;;;0.63;;
22359;SDS011;71759;52.034;4.706;2023-08-08T09:40:46;2.20;;;0.60;;
22359;SDS011;71759;52.034;4.706;2023-08-08T09:43:11;2.80;;;0.57;;
22359;SDS011;71759;52.034;4.706;2023-08-08T09:45:40;2.80;;;0.50;;
22359;SDS011;71759;52.034;4.706;2023-08-08T09:48:09;1.27;;;0.50;;
22359;SDS011;71759;52.034;4.706;2023-08-08T09:50:35;2.37;;;0.60;;
22359;SDS011;71759;52.034;4.706;2023-08-08T09:53:01;2.93;;;0.70;;
22359;SDS011;71759;52.034;4.706;2023-08-08T09:55:28;4.10;;;0.50;;
22359;SDS011;71759;52.034;4.706;2023-08-08T09:57:55;2.17;;;0.57;;
22359;SDS011;71759;52.034;4.706;2023-08-08T10:00:22;2.13;;;0.70;;
22359;SDS011;71759;52.034;4.706;2023-08-08T10:02:50;2.83;;;0.60;;
22359;SDS011;71759;52.034;4.706;2023-08-08T10:05:16;1.53;;;0.50;;
22359;SDS011;71759;52.034;4.706;2023-08-08T10:15:06;1.30;;;0.50;;
22359;SDS011;71759;52.034;4.706;2023-08-08T10:17:38;4.13;;;0.80;;
22359;SDS011;71759;52.034;4.706;2023-08-08T10:20:06;5.17;;;0.80;;
22359;SDS011;71759;52.034;4.706;2023-08-08T10:30:08;1.93;;;0.50;;
22359;SDS011;71759;52.034;4.706;2023-08-08T10:32:39;0.80;;;0.47;;
22359;SDS011;71759;52.034;4.706;2023-08-08T10:35:09;2.97;;;0.57;;
22359;SDS011;71759;52.034;4.706;2023-08-08T10:37:36;3.17;;;0.70;;
22359;SDS011;71759;52.034;4.706;2023-08-08T10:40:03;1.70;;;0.70;;
22359;SDS011;71759;52.034;4.706;2023-08-08T10:42:32;2.77;;;0.63;;
22359;SDS011;71759;52.034;4.706;2023-08-08T10:45:08;4.23;;;0.50;;
22359;SDS011;71759;52.034;4.706;2023-08-08T10:47:38;1.20;;;0.50;;
22359;SDS011;71759;52.034;4.706;2023-08-08T10:50:05;2.63;;;0.47;;
22359;SDS011;71759;52.034;4.706;2023-08-08T10:57:54;4.27;;;0.63;;
22359;SDS011;71759;52.034;4.706;2023-08-08T11:00:25;1.57;;;0.70;;
22359;SDS011;71759;52.034;4.706;2023-08-08T11:02:54;3.57;;;0.60;;
22359;SDS011;71759;52.034;4.706;2023-08-08T11:05:23;5.63;;;0.57;;
22359;SDS011;71759;52.034;4.706;2023-08-08T11:07:49;2.17;;;0.63;;
22359;SDS011;71759;52.034;4.706;2023-08-08T11:10:15;2.27;;;0.60;;
22359;SDS011;71759;52.034;4.706;2023-08-08T11:12:41;2.90;;;0.73;;
22359;SDS011;71759;52.034;4.706;2023-08-08T11:15:07;3.83;;;0.80;;
22359;SDS011;71759;52.034;4.706;2023-08-08T11:17:33;3.20;;;0.60;;
22359;SDS011;71759;52.034;4.706;2023-08-08T11:19:59;4.67;;;0.97;;
22359;SDS011;71759;52.034;4.706;2023-08-08T11:22:26;3.50;;;0.70;;
22359;SDS011;71759;52.034;4.706;2023-08-08T11:24:52;4.17;;;0.50;;
22359;SDS011;71759;52.034;4.706;2023-08-08T11:27:17;2.43;;;0.40;;
22359;SDS011;71759;52.034;4.706;2023-08-08T11:29:49;7.07;;;0.53;;
22359;SDS011;71759;52.034;4.706;2023-08-08T11:32:15;3.00;;;0.60;;
22359;SDS011;71759;52.034;4.706;2023-08-08T11:34:41;2.07;;;0.50;;
22359;SDS011;71759;52.034;4.706;2023-08-08T11:37:07;1.87;;;0.40;;
22359;SDS011;71759;52.034;4.706;2023-08-08T11:39:34;3.47;;;0.70;;
22359;SDS011;71759;52.034;4.706;2023-08-08T11:41:59;1.80;;;0.63;;
22359;SDS011;71759;52.034;4.706;2023-08-08T11:44:26;2.03;;;0.60;;
22359;SDS011;71759;52.034;4.706;2023-08-08T11:46:51;2.37;;;0.50;;
22359;SDS011;71759;52.034;4.706;2023-08-08T11:49:17;3.23;;;0.53;;
22359;SDS011;71759;52.034;4.706;2023-08-08T11:51:46;3.33;;;0.70;;
22359;SDS011;71759;52.034;4.706;2023-08-08T11:54:11;2.77;;;0.80;;
22359;SDS011;71759;52.034;4.706;2023-08-08T11:56:38;1.60;;;0.77;;
22359;SDS011;71759;52.034;4.706;2023-08-08T11:59:04;0.60;;;0.50;;
22359;SDS011;71759;52.034;4.706;2023-08-08T12:01:31;2.57;;;0.70;;
22359;SDS011;71759;52.034;4.706;2023-08-08T12:03:58;2.77;;;0.80;;
22359;SDS011;71759;52.034;4.706;2023-08-08T12:06:29;3.60;;;0.50;;
22359;SDS011;71759;52.034;4.706;2023-08-08T12:08:54;4.37;;;0.60;;
22359;SDS011;71759;52.034;4.706;2023-08-08T12:11:21;2.53;;;0.70;;
22359;SDS011;71759;52.034;4.706;2023-08-08T12:13:46;1.47;;;0.70;;
22359;SDS011;71759;52.034;4.706;2023-08-08T12:16:12;1.83;;;0.60;;
22359;SDS011;71759;52.034;4.706;2023-08-08T12:18:39;2.43;;;0.60;;
22359;SDS011;71759;52.034;4.706;2023-08-08T12:21:06;3.33;;;0.80;;
22359;SDS011;71759;52.034;4.706;2023-08-08T12:23:33;2.93;;;0.60;;
22359;SDS011;71759;52.034;4.706;2023-08-08T12:26:00;4.93;;;0.87;;
22359;SDS011;71759;52.034;4.706;2023-08-08T12:28:28;2.60;;;0.80;;
22359;SDS011;71759;52.034;4.706;2023-08-08T12:30:54;3.63;;;0.80;;
22359;SDS011;71759;52.034;4.706;2023-08-08T12:33:19;2.80;;;0.90;;
22359;SDS011;71759;52.034;4.706;2023-08-08T12:35:45;1.47;;;0.63;;
22359;SDS011;71759;52.034;4.706;2023-08-08T12:38:10;3.03;;;0.60;;
22359;SDS011;71759;52.034;4.706;2023-08-08T12:40:36;1.60;;;0.77;;
22359;SDS011;71759;52.034;4.706;2023-08-08T12:43:02;2.23;;;0.80;;
22359;SDS011;71759;52.034;4.706;2023-08-08T12:45:28;3.83;;;0.80;;
22359;SDS011;71759;52.034;4.706;2023-08-08T12:47:53;5.17;;;0.90;;
22359;SDS011;71759;52.034;4.706;2023-08-08T12:50:19;2.40;;;0.70;;
22359;SDS011;71759;52.034;4.706;2023-08-08T12:52:44;2.27;;;0.80;;
22359;SDS011;71759;52.034;4.706;2023-08-08T12:55:10;3.00;;;0.80;;
22359;SDS011;71759;52.034;4.706;2023-08-08T12:57:36;2.37;;;0.80;;
22359;SDS011;71759;52.034;4.706;2023-08-08T13:00:02;3.37;;;0.70;;
22359;SDS011;71759;52.034;4.706;2023-08-08T13:02:28;2.93;;;0.90;;
22359;SDS011;71759;52.034;4.706;2023-08-08T13:04:54;4.00;;;1.00;;
22359;SDS011;71759;52.034;4.706;2023-08-08T13:07:19;2.80;;;0.80;;
22359;SDS011;71759;52.034;4.706;2023-08-08T13:09:45;3.23;;;0.63;;
22359;SDS011;71759;52.034;4.706;2023-08-08T13:12:11;3.73;;;1.20;;
22359;SDS011;71759;52.034;4.706;2023-08-08T13:14:36;5.37;;;0.90;;
22359;SDS011;71759;52.034;4.706;2023-08-08T13:17:02;5.07;;;0.80;;
22359;SDS011;71759;52.034;4.706;2023-08-08T13:19:27;2.63;;;0.80;;
22359;SDS011;71759;52.034;4.706;2023-08-08T13:21:53;1.53;;;0.60;;
22359;SDS011;71759;52.034;4.706;2023-08-08T13:24:19;2.60;;;0.50;;
22359;SDS011;71759;52.034;4.706;2023-08-08T13:26:49;4.17;;;0.70;;
22359;SDS011;71759;52.034;4.706;2023-08-08T13:29:14;2.30;;;0.70;;
22359;SDS011;71759;52.034;4.706;2023-08-08T13:31:40;3.03;;;0.67;;
22359;SDS011;71759;52.034;4.706;2023-08-08T13:34:06;4.37;;;0.80;;
22359;SDS011;71759;52.034;4.706;2023-08-08T13:36:32;4.70;;;0.90;;
22359;SDS011;71759;52.034;4.706;2023-08-08T13:38:57;3.10;;;0.80;;
22359;SDS011;71759;52.034;4.706;2023-08-08T13:41:23;1.27;;;0.70;;
22359;SDS011;71759;52.034;4.706;2023-08-08T13:43:49;3.83;;;0.87;;
22359;SDS011;71759;52.034;4.706;2023-08-08T13:46:14;3.57;;;0.80;;
22359;SDS011;71759;52.034;4.706;2023-08-08T13:48:40;4.50;;;0.60;;
22359;SDS011;71759;52.034;4.706;2023-08-08T13:51:05;4.33;;;0.90;;
22359;SDS011;71759;52.034;4.706;2023-08-08T13:53:31;4.37;;;0.93;;
22359;SDS011;71759;52.034;4.706;2023-08-08T13:55:57;3.43;;;0.80;;
22359;SDS011;71759;52.034;4.706;2023-08-08T13:58:22;4.97;;;0.87;;
22359;SDS011;71759;52.034;4.706;2023-08-08T14:00:48;4.37;;;0.90;;
22359;SDS011;71759;52.034;4.706;2023-08-08T14:03:14;2.57;;;1.00;;
22359;SDS011;71759;52.034;4.706;2023-08-08T14:05:40;3.17;;;1.00;;
22359;SDS011;71759;52.034;4.706;2023-08-08T14:08:05;4.73;;;0.87;;
22359;SDS011;71759;52.034;4.706;2023-08-08T14:10:31;3.90;;;1.10;;
22359;SDS011;71759;52.034;4.706;2023-08-08T14:12:57;4.23;;;1.03;;
22359;SDS011;71759;52.034;4.706;2023-08-08T14:15:23;2.97;;;1.00;;
22359;SDS011;71759;52.034;4.706;2023-08-08T14:17:49;3.87;;;1.00;;
22359;SDS011;71759;52.034;4.706;2023-08-08T14:20:14;4.50;;;0.80;;
22359;SDS011;71759;52.034;4.706;2023-08-08T14:22:43;3.53;;;0.80;;
22359;SDS011;71759;52.034;4.706;2023-08-08T14:25:11;2.40;;;0.80;;
22359;SDS011;71759;52.034;4.706;2023-08-08T14:27:37;4.93;;;1.30;;
22359;SDS011;71759;52.034;4.706;2023-08-08T14:30:03;3.33;;;1.03;;
22359;SDS011;71759;52.034;4.706;2023-08-08T14:32:29;3.80;;;0.90;;
22359;SDS011;71759;52.034;4.706;2023-08-08T14:37:30;2.73;;;1.03;;
22359;SDS011;71759;52.034;4.706;2023-08-08T14:39:56;3.13;;;1.10;;
22359;SDS011;71759;52.034;4.706;2023-08-08T14:42:22;5.50;;;1.17;;
22359;SDS011;71759;52.034;4.706;2023-08-08T14:44:47;4.17;;;1.10;;
22359;SDS011;71759;52.034;4.706;2023-08-08T14:47:13;5.37;;;1.13;;
22359;SDS011;71759;52.034;4.706;2023-08-08T14:49:39;5.03;;;1.23;;
22359;SDS011;71759;52.034;4.706;2023-08-08T14:52:04;4.97;;;1.30;;
22359;SDS011;71759;52.034;4.706;2023-08-08T14:54:30;3.60;;;0.90;;
22359;SDS011;71759;52.034;4.706;2023-08-08T14:56:55;3.50;;;0.90;;
22359;SDS011;71759;52.034;4.706;2023-08-08T14:59:21;8.57;;;1.10;;
22359;SDS011;71759;52.034;4.706;2023-08-08T15:01:47;3.53;;;1.07;;
22359;SDS011;71759;52.034;4.706;2023-08-08T15:04:12;3.57;;;1.27;;
22359;SDS011;71759;52.034;4.706;2023-08-08T15:06:38;2.47;;;1.00;;
22359;SDS011;71759;52.034;4.706;2023-08-08T15:09:05;3.60;;;0.90;;
22359;SDS011;71759;52.034;4.706;2023-08-08T15:11:31;5.23;;;1.00;;
22359;SDS011;71759;52.034;4.706;2023-08-08T15:13:56;1.83;;;0.90;;
22359;SDS011;71759;52.034;4.706;2023-08-08T15:16:22;4.47;;;1.00;;
22359;SDS011;71759;52.034;4.706;2023-08-08T15:18:48;3.03;;;0.90;;
22359;SDS011;71759;52.034;4.706;2023-08-08T15:21:13;5.87;;;1.30;;
22359;SDS011;71759;52.034;4.706;2023-08-08T15:23:44;5.67;;;1.10;;
22359;SDS011;71759;52.034;4.706;2023-08-08T15:26:10;6.30;;;1.20;;
22359;SDS011;71759;52.034;4.706;2023-08-08T15:28:36;3.40;;;1.07;;
22359;SDS011;71759;52.034;4.706;2023-08-08T15:31:02;2.83;;;0.90;;
22359;SDS011;71759;52.034;4.706;2023-08-08T15:33:28;5.40;;;1.00;;
22359;SDS011;71759;52.034;4.706;2023-08-08T15:35:54;5.53;;;0.80;;
22359;SDS011;71759;52.034;4.706;2023-08-08T15:38:19;5.10;;;1.00;;
22359;SDS011;71759;52.034;4.706;2023-08-08T15:40:45;7.00;;;1.10;;
22359;SDS011;71759;52.034;4.706;2023-08-08T15:43:10;3.50;;;1.00;;
22359;SDS011;71759;52.034;4.706;2023-08-08T15:45:36;2.43;;;0.80;;
22359;SDS011;71759;52.034;4.706;2023-08-08T15:48:01;2.77;;;0.83;;
22359;SDS011;71759;52.034;4.706;2023-08-08T15:50:27;5.00;;;0.93;;
22359;SDS011;71759;52.034;4.706;2023-08-08T15:52:53;6.10;;;1.00;;
22359;SDS011;71759;52.034;4.706;2023-08-08T15:55:21;8.20;;;1.17;;
22359;SDS011;71759;52.034;4.706;2023-08-08T15:57:47;5.33;;;0.90;;
22359;SDS011;71759;52.034;4.706;2023-08-08T16:00:13;8.23;;;2.90;;
22359;SDS011;71759;52.034;4.706;2023-08-08T16:02:40;4.53;;;1.40;;
22359;SDS011;71759;52.034;4.706;2023-08-08T16:05:06;4.90;;;1.10;;
22359;SDS011;71759;52.034;4.706;2023-08-08T16:07:32;6.47;;;1.43;;
22359;SDS011;71759;52.034;4.706;2023-08-08T16:09:58;6.17;;;1.33;;
22359;SDS011;71759;52.034;4.706;2023-08-08T16:12:23;2.57;;;0.93;;
22359;SDS011;71759;52.034;4.706;2023-08-08T16:14:49;6.50;;;1.53;;
22359;SDS011;71759;52.034;4.706;2023-08-08T16:17:15;6.03;;;1.33;;
22359;SDS011;71759;52.034;4.706;2023-08-08T16:19:40;6.80;;;1.30;;
22359;SDS011;71759;52.034;4.706;2023-08-08T16:22:06;5.10;;;1.00;;
22359;SDS011;71759;52.034;4.706;2023-08-08T16:24:31;5.33;;;1.40;;
22359;SDS011;71759;52.034;4.706;2023-08-08T16:26:57;6.67;;;1.50;;
22359;SDS011;71759;52.034;4.706;2023-08-08T16:29:22;8.23;;;1.57;;
22359;SDS011;71759;52.034;4.706;2023-08-08T16:31:48;5.30;;;1.53;;
22359;SDS011;71759;52.034;4.706;2023-08-08T16:34:13;6.03;;;1.40;;
22359;SDS011;71759;52.034;4.706;2023-08-08T16:36:39;7.00;;;1.90;;
22359;SDS011;71759;52.034;4.706;2023-08-08T16:39:04;6.00;;;1.43;;
22359;SDS011;71759;52.034;4.706;2023-08-08T16:41:30;4.50;;;1.77;;
22359;SDS011;71759;52.034;4.706;2023-08-08T16:44:00;6.73;;;1.60;;
22359;SDS011;71759;52.034;4.706;2023-08-08T16:46:27;3.63;;;1.60;;
22359;SDS011;71759;52.034;4.706;2023-08-08T16:48:53;4.67;;;1.60;;
22359;SDS011;71759;52.034;4.706;2023-08-08T16:51:19;4.47;;;1.60;;
22359;SDS011;71759;52.034;4.706;2023-08-08T16:53:45;5.77;;;1.87;;
22359;SDS011;71759;52.034;4.706;2023-08-08T16:56:11;5.37;;;1.70;;
22359;SDS011;71759;52.034;4.706;2023-08-08T16:58:37;5.50;;;1.37;;
22359;SDS011;71759;52.034;4.706;2023-08-08T17:01:04;5.77;;;2.33;;
22359;SDS011;71759;52.034;4.706;2023-08-08T17:03:30;6.63;;;1.90;;
22359;SDS011;71759;52.034;4.706;2023-08-08T17:05:55;5.60;;;1.80;;
22359;SDS011;71759;52.034;4.706;2023-08-08T17:08:21;6.73;;;2.10;;
22359;SDS011;71759;52.034;4.706;2023-08-08T17:10:46;3.90;;;1.60;;
22359;SDS011;71759;52.034;4.706;2023-08-08T17:13:12;5.63;;;2.07;;
22359;SDS011;71759;52.034;4.706;2023-08-08T17:15:37;6.53;;;2.10;;
22359;SDS011;71759;52.034;4.706;2023-08-08T17:18:03;8.17;;;2.57;;
22359;SDS011;71759;52.034;4.706;2023-08-08T17:20:29;6.63;;;2.07;;
22359;SDS011;71759;52.034;4.706;2023-08-08T17:22:54;4.50;;;1.67;;
22359;SDS011;71759;52.034;4.706;2023-08-08T17:25:20;3.87;;;1.23;;
22359;SDS011;71759;52.034;4.706;2023-08-08T17:27:46;5.00;;;1.20;;
22359;SDS011;71759;52.034;4.706;2023-08-08T17:30:12;4.90;;;1.50;;
22359;SDS011;71759;52.034;4.706;2023-08-08T17:32:38;3.27;;;1.10;;
22359;SDS011;71759;52.034;4.706;2023-08-08T17:35:04;4.07;;;1.50;;
22359;SDS011;71759;52.034;4.706;2023-08-08T17:37:30;4.10;;;1.50;;
22359;SDS011;71759;52.034;4.706;2023-08-08T17:39:55;3.23;;;1.43;;
22359;SDS011;71759;52.034;4.706;2023-08-08T17:42:21;4.80;;;1.70;;
22359;SDS011;71759;52.034;4.706;2023-08-08T17:44:47;3.37;;;1.67;;
22359;SDS011;71759;52.034;4.706;2023-08-08T17:47:12;7.73;;;1.77;;
22359;SDS011;71759;52.034;4.706;2023-08-08T17:49:39;9.87;;;1.70;;
22359;SDS011;71759;52.034;4.706;2023-08-08T17:52:05;5.80;;;2.10;;
22359;SDS011;71759;52.034;4.706;2023-08-08T17:54:31;6.88;;;1.92;;
22359;SDS011;71759;52.034;4.706;2023-08-08T17:56:56;7.07;;;2.20;;
22359;SDS011;71759;52.034;4.706;2023-08-08T17:59:22;8.37;;;2.27;;
22359;SDS011;71759;52.034;4.706;2023-08-08T18:01:47;4.93;;;1.80;;
22359;SDS011;71759;52.034;4.706;2023-08-08T18:04:13;7.70;;;2.17;;
22359;SDS011;71759;52.034;4.706;2023-08-08T18:06:38;5.10;;;2.00;;
22359;SDS011;71759;52.034;4.706;2023-08-08T18:09:04;8.32;;;1.92;;
22359;SDS011;71759;52.034;4.706;2023-08-08T18:11:30;7.30;;;1.90;;
22359;SDS011;71759;52.034;4.706;2023-08-08T18:14:02;3.22;;;1.38;;
22359;SDS011;71759;52.034;4.706;2023-08-08T18:16:29;5.03;;;1.60;;
22359;SDS011;71759;52.034;4.706;2023-08-08T18:18:55;4.33;;;1.50;;
22359;SDS011;71759;52.034;4.706;2023-08-08T18:21:20;2.97;;;1.27;;
22359;SDS011;71759;52.034;4.706;2023-08-08T18:23:46;5.20;;;1.50;;
22359;SDS011;71759;52.034;4.706;2023-08-08T18:26:11;2.63;;;1.10;;
22359;SDS011;71759;52.034;4.706;2023-08-08T18:28:42;6.53;;;1.53;;
22359;SDS011;71759;52.034;4.706;2023-08-08T18:31:08;1.77;;;1.10;;
22359;SDS011;71759;52.034;4.706;2023-08-08T18:33:33;4.10;;;1.10;;
22359;SDS011;71759;52.034;4.706;2023-08-08T18:35:59;2.60;;;1.20;;
22359;SDS011;71759;52.034;4.706;2023-08-08T18:38:28;4.33;;;1.20;;
22359;SDS011;71759;52.034;4.706;2023-08-08T18:40:54;5.47;;;1.63;;
22359;SDS011;71759;52.034;4.706;2023-08-08T18:43:20;4.07;;;1.13;;
22359;SDS011;71759;52.034;4.706;2023-08-08T18:45:45;2.50;;;1.30;;
22359;SDS011;71759;52.034;4.706;2023-08-08T18:48:11;4.27;;;1.30;;
22359;SDS011;71759;52.034;4.706;2023-08-08T18:50:36;3.20;;;1.10;;
22359;SDS011;71759;52.034;4.706;2023-08-08T19:10:00;3.17;;;1.20;;
22359;SDS011;71759;52.034;4.706;2023-08-08T19:12:26;4.30;;;1.50;;
22359;SDS011;71759;52.034;4.706;2023-08-08T19:14:51;6.10;;;1.63;;
22359;SDS011;71759;52.034;4.706;2023-08-08T19:17:17;6.37;;;1.37;;
22359;SDS011;71759;52.034;4.706;2023-08-08T19:19:43;4.73;;;1.30;;
22359;SDS011;71759;52.034;4.706;2023-08-08T19:22:09;4.35;;;1.35;;
22359;SDS011;71759;52.034;4.706;2023-08-08T19:24:34;4.07;;;1.43;;
22359;SDS011;71759;52.034;4.706;2023-08-08T19:27:00;4.88;;;1.38;;
22359;SDS011;71759;52.034;4.706;2023-08-08T19:29:25;4.13;;;1.60;;
22359;SDS011;71759;52.034;4.706;2023-08-08T19:31:51;4.63;;;1.60;;
22359;SDS011;71759;52.034;4.706;2023-08-08T19:34:16;7.73;;;1.80;;
22359;SDS011;71759;52.034;4.706;2023-08-08T19:36:42;4.67;;;1.83;;
22359;SDS011;71759;52.034;4.706;2023-08-08T19:39:08;4.93;;;1.80;;
22359;SDS011;71759;52.034;4.706;2023-08-08T19:41:33;8.98;;;1.90;;
22359;SDS011;71759;52.034;4.706;2023-08-08T19:43:59;5.70;;;1.77;;
22359;SDS011;71759;52.034;4.706;2023-08-08T19:46:24;3.63;;;1.80;;
22359;SDS011;71759;52.034;4.706;2023-08-08T19:48:50;5.57;;;1.77;;
22359;SDS011;71759;52.034;4.706;2023-08-08T19:51:15;5.20;;;2.00;;
22359;SDS011;71759;52.034;4.706;2023-08-08T19:53:41;6.03;;;2.03;;
22359;SDS011;71759;52.034;4.706;2023-08-08T19:56:07;5.20;;;2.13;;
22359;SDS011;71759;52.034;4.706;2023-08-08T19:58:33;5.93;;;2.30;;
22359;SDS011;71759;52.034;4.706;2023-08-08T20:00:59;7.68;;;2.30;;
22359;SDS011;71759;52.034;4.706;2023-08-08T20:03:25;5.10;;;2.30;;
22359;SDS011;71759;52.034;4.706;2023-08-08T20:05:50;6.15;;;2.45;;
22359;SDS011;71759;52.034;4.706;2023-08-08T20:08:16;4.05;;;2.10;;
22359;SDS011;71759;52.034;4.706;2023-08-08T20:10:41;6.70;;;2.23;;
22359;SDS011;71759;52.034;4.706;2023-08-08T20:13:07;7.53;;;2.30;;
22359;SDS011;71759;52.034;4.706;2023-08-08T20:15:35;5.05;;;2.42;;
22359;SDS011;71759;52.034;4.706;2023-08-08T20:18:01;5.18;;;2.40;;
22359;SDS011;71759;52.034;4.706;2023-08-08T20:20:26;6.23;;;2.60;;
22359;SDS011;71759;52.034;4.706;2023-08-08T20:22:52;5.67;;;2.73;;
22359;SDS011;71759;52.034;4.706;2023-08-08T20:25:18;6.53;;;2.85;;
22359;SDS011;71759;52.034;4.706;2023-08-08T20:27:43;7.40;;;3.10;;
22359;SDS011;71759;52.034;4.706;2023-08-08T20:30:09;5.27;;;3.10;;
22359;SDS011;71759;52.034;4.706;2023-08-08T20:32:36;5.57;;;3.20;;
22359;SDS011;71759;52.034;4.706;2023-08-08T20:35:01;7.33;;;3.53;;
22359;SDS011;71759;52.034;4.706;2023-08-08T20:37:27;7.27;;;4.00;;
22359;SDS011;71759;52.034;4.706;2023-08-08T20:39:52;6.50;;;3.80;;
22359;SDS011;71759;52.034;4.706;2023-08-08T20:42:18;6.20;;;4.10;;
22359;SDS011;71759;52.034;4.706;2023-08-08T20:44:44;7.97;;;4.47;;
22359;SDS011;71759;52.034;4.706;2023-08-08T20:47:09;8.57;;;4.90;;
22359;SDS011;71759;52.034;4.706;2023-08-08T20:49:35;9.80;;;5.07;;
22359;SDS011;71759;52.034;4.706;2023-08-08T20:52:00;9.37;;;4.90;;
22359;SDS011;71759;52.034;4.706;2023-08-08T20:54:26;9.47;;;5.37;;
22359;SDS011;71759;52.034;4.706;2023-08-08T20:56:58;8.90;;;5.45;;
22359;SDS011;71759;52.034;4.706;2023-08-08T20:59:27;9.97;;;5.83;;
22359;SDS011;71759;52.034;4.706;2023-08-08T21:01:53;9.32;;;5.50;;
22359;SDS011;71759;52.034;4.706;2023-08-08T21:04:20;9.60;;;6.20;;
22359;SDS011;71759;52.034;4.706;2023-08-08T21:06:46;9.77;;;5.65;;
22359;SDS011;71759;52.034;4.706;2023-08-08T21:09:11;8.80;;;6.00;;
22359;SDS011;71759;52.034;4.706;2023-08-08T21:11:37;9.43;;;5.90;;
22359;SDS011;71759;52.034;4.706;2023-08-08T21:14:03;11.60;;;6.63;;
22359;SDS011;71759;52.034;4.706;2023-08-08T21:16:28;10.68;;;6.90;;
22359;SDS011;71759;52.034;4.706;2023-08-08T21:18:54;10.80;;;7.60;;
22359;SDS011;71759;52.034;4.706;2023-08-08T21:21:20;10.17;;;7.10;;
22359;SDS011;71759;52.034;4.706;2023-08-08T21:23:45;11.75;;;7.47;;
22359;SDS011;71759;52.034;4.706;2023-08-08T21:26:11;12.32;;;7.50;;
22359;SDS011;71759;52.034;4.706;2023-08-08T21:28:37;9.50;;;6.60;;
22359;SDS011;71759;52.034;4.706;2023-08-08T21:31:02;10.93;;;7.07;;
22359;SDS011;71759;52.034;4.706;2023-08-08T21:33:28;11.48;;;6.75;;
22359;SDS011;71759;52.034;4.706;2023-08-08T21:35:53;10.27;;;7.07;;
22359;SDS011;71759;52.034;4.706;2023-08-08T21:38:19;10.27;;;7.07;;
22359;SDS011;71759;52.034;4.706;2023-08-08T21:40:44;10.47;;;7.43;;
22359;SDS011;71759;52.034;4.706;2023-08-08T21:43:10;11.77;;;7.90;;
22359;SDS011;71759;52.034;4.706;2023-08-08T21:45:36;12.93;;;8.45;;
22359;SDS011;71759;52.034;4.706;2023-08-08T21:48:03;11.90;;;8.40;;
22359;SDS011;71759;52.034;4.706;2023-08-08T21:50:29;11.67;;;8.50;;
22359;SDS011;71759;52.034;4.706;2023-08-08T21:52:55;13.50;;;7.93;;
22359;SDS011;71759;52.034;4.706;2023-08-08T21:55:20;10.37;;;7.17;;
22359;SDS011;71759;52.034;4.706;2023-08-08T21:57:46;11.67;;;7.73;;
22359;SDS011;71759;52.034;4.706;2023-08-08T22:00:12;15.17;;;8.27;;
22359;SDS011;71759;52.034;4.706;2023-08-08T22:02:38;15.73;;;8.83;;
22359;SDS011;71759;52.034;4.706;2023-08-08T22:14:46;17.43;;;9.10;;
22359;SDS011;71759;52.034;4.706;2023-08-08T22:17:11;19.47;;;11.30;;
22359;SDS011;71759;52.034;4.706;2023-08-08T22:19:37;16.30;;;11.30;;
22359;SDS011;71759;52.034;4.706;2023-08-08T22:22:02;12.53;;;9.47;;
22359;SDS011;71759;52.034;4.706;2023-08-08T22:24:28;12.82;;;9.45;;
22359;SDS011;71759;52.034;4.706;2023-08-08T22:26:57;12.68;;;8.90;;
22359;SDS011;71759;52.034;4.706;2023-08-08T22:29:22;11.30;;;8.02;;
22359;SDS011;71759;52.034;4.706;2023-08-08T22:31:50;9.52;;;7.40;;
22359;SDS011;71759;52.034;4.706;2023-08-08T22:34:16;8.87;;;6.80;;
22359;SDS011;71759;52.034;4.706;2023-08-08T22:36:41;10.50;;;6.87;;
22359;SDS011;71759;52.034;4.706;2023-08-08T22:39:07;8.43;;;6.57;;
22359;SDS011;71759;52.034;4.706;2023-08-08T22:41:32;9.25;;;6.57;;
22359;SDS011;71759;52.034;4.706;2023-08-08T22:43:58;9.38;;;5.97;;
22359;SDS011;71759;52.034;4.706;2023-08-08T22:46:23;9.83;;;6.33;;
22359;SDS011;71759;52.034;4.706;2023-08-08T22:48:49;9.07;;;6.20;;
22359;SDS011;71759;52.034;4.706;2023-08-08T22:51:14;8.27;;;5.47;;
22359;SDS011;71759;52.034;4.706;2023-08-08T22:53:40;6.87;;;4.90;;
22359;SDS011;71759;52.034;4.706;2023-08-08T22:56:07;7.50;;;5.28;;
22359;SDS011;71759;52.034;4.706;2023-08-08T22:58:34;7.72;;;5.07;;
22359;SDS011;71759;52.034;4.706;2023-08-08T23:01:00;6.40;;;4.22;;
22359;SDS011;71759;52.034;4.706;2023-08-08T23:03:26;6.03;;;3.95;;
22359;SDS011;71759;52.034;4.706;2023-08-08T23:05:51;6.53;;;4.10;;
22359;SDS011;71759;52.034;4.706;2023-08-08T23:08:27;7.95;;;3.95;;
22359;SDS011;71759;52.034;4.706;2023-08-08T23:10:54;5.65;;;3.80;;
22359;SDS011;71759;52.034;4.706;2023-08-08T23:13:20;6.87;;;3.80;;
22359;SDS011;71759;52.034;4.706;2023-08-08T23:15:45;6.03;;;3.70;;
22359;SDS011;71759;52.034;4.706;2023-08-08T23:18:11;5.75;;;3.80;;
22359;SDS011;71759;52.034;4.706;2023-08-08T23:20:37;6.10;;;3.90;;
22359;SDS011;71759;52.034;4.706;2023-08-08T23:23:03;5.63;;;3.80;;
22359;SDS011;71759;52.034;4.706;2023-08-08T23:25:30;6.15;;;4.22;;
22359;SDS011;71759;52.034;4.706;2023-08-08T23:27:56;7.13;;;4.20;;
22359;SDS011;71759;52.034;4.706;2023-08-08T23:30:22;7.55;;;4.35;;
22359;SDS011;71759;52.034;4.706;2023-08-08T23:32:48;6.97;;;4.87;;
22359;SDS011;71759;52.034;4.706;2023-08-08T23:35:14;7.13;;;4.80;;
22359;SDS011;71759;52.034;4.706;2023-08-08T23:37:40;6.72;;;4.95;;
22359;SDS011;71759;52.034;4.706;2023-08-08T23:40:06;8.10;;;4.97;;
22359;SDS011;71759;52.034;4.706;2023-08-08T23:42:33;6.50;;;4.65;;
22359;SDS011;71759;52.034;4.706;2023-08-08T23:45:00;7.50;;;5.35;;
22359;SDS011;71759;52.034;4.706;2023-08-08T23:47:26;6.95;;;5.13;;
22359;SDS011;71759;52.034;4.706;2023-08-08T23:49:52;9.20;;;5.95;;
22359;SDS011;71759;52.034;4.706;2023-08-08T23:52:17;8.43;;;5.75;;
22359;SDS011;71759;52.034;4.706;2023-08-08T23:54:44;9.68;;;6.25;;
22359;SDS011;71759;52.034;4.706;2023-08-08T23:57:09;10.98;;;7.07;;
22359;SDS011;71759;52.034;4.706;2023-08-08T23:59:35;9.90;;;7.10;;
